Time;durP1;ratioP1;P1;durP2;ratioP2;P2;SDS_P1;SDS_P2;PMS_P1;PMS_P2;Temp;Humidity;BMP_temperature;BMP_pressure;BME280_temperature;BME280_humidity;BME280_pressure;Samples;Min_cycle;Max_cycle;Signal;HPM_P1;HPM_P2
2021/07/14 00:02:15;;;;;;;21.60;14.63;;;;;;;23.29;66.85;100446.66;4995534;28;20793;-49
2021/07/14 00:04:43;;;;;;;23.83;14.70;;;;;;;23.32;66.68;100449.28;4996727;28;20769;-50
2021/07/14 00:07:10;;;;;;;21.40;14.27;;;;;;;23.30;67.01;100437.94;4995151;28;20482;-50
2021/07/14 00:09:38;;;;;;;20.50;15.33;;;;;;;23.40;66.53;100443.03;4996184;28;20478;-49
2021/07/14 00:12:10;;;;;;;18.63;14.50;;;;;;;23.49;66.31;100431.47;4995363;28;20481;-51
2021/07/14 00:17:28;;;;;;;19.23;14.53;;;;;;;23.57;66.01;100429.56;4994842;28;20470;-49
2021/07/14 00:22:41;;;;;;;51.13;35.53;;;;;;;23.52;66.27;100424.41;4995011;28;20482;-50
2021/07/14 00:25:12;;;;;;;30.10;22.70;;;;;;;23.58;66.45;100436.59;4995952;28;20465;-49
2021/07/14 00:27:41;;;;;;;42.07;29.17;;;;;;;23.65;65.86;100432.97;4994639;28;20501;-48
2021/07/14 00:30:15;;;;;;;34.20;24.37;;;;;;;23.70;65.91;100433.72;4995822;28;20505;-51
2021/07/14 00:32:43;;;;;;;24.57;17.37;;;;;;;23.60;65.86;100432.16;4995132;28;20469;-52
2021/07/14 00:35:12;;;;;;;38.33;28.23;;;;;;;23.64;65.53;100438.25;4995921;28;20823;-50
2021/07/14 00:37:40;;;;;;;39.50;26.40;;;;;;;23.54;66.15;100430.50;4994371;28;20948;-48
2021/07/14 00:40:11;;;;;;;26.23;21.50;;;;;;;23.35;66.93;100429.06;4995745;28;20947;-53
2021/07/14 00:42:38;;;;;;;28.33;20.87;;;;;;;23.33;67.12;100427.34;4994813;28;20479;-50
2021/07/14 00:45:07;;;;;;;24.50;19.20;;;;;;;23.33;67.39;100419.44;4998468;28;20458;-50
2021/07/14 00:47:37;;;;;;;22.17;17.13;;;;;;;23.38;67.04;100418.50;4994432;28;20883;-48
2021/07/14 00:50:06;;;;;;;18.47;15.00;;;;;;;23.33;66.71;100411.56;4998227;28;20482;-50
2021/07/14 00:52:36;;;;;;;20.07;14.93;;;;;;;23.28;66.81;100410.72;4994672;28;20481;-47
2021/07/14 00:55:04;;;;;;;19.13;13.90;;;;;;;23.08;67.21;100407.56;4995875;28;20497;-47
2021/07/14 00:57:32;;;;;;;20.27;16.27;;;;;;;23.09;67.27;100404.03;4994336;28;20755;-49
2021/07/14 00:59:59;;;;;;;17.90;14.70;;;;;;;23.13;67.17;100397.84;4995264;28;20490;-48
2021/07/14 01:02:28;;;;;;;18.80;14.10;;;;;;;23.23;67.02;100393.28;4994600;28;20501;-50
2021/07/14 01:05:00;;;;;;;23.20;16.47;;;;;;;23.08;67.48;100389.16;4995622;28;20893;-52
2021/07/14 01:07:31;;;;;;;20.17;15.67;;;;;;;23.19;67.07;100382.81;4994420;28;20492;-52
2021/07/14 01:10:04;;;;;;;19.10;14.33;;;;;;;23.25;66.84;100379.22;4995634;28;20876;-48
2021/07/14 01:12:36;;;;;;;18.03;14.57;;;;;;;23.18;66.86;100380.22;4994633;28;20486;-50
2021/07/14 01:15:08;;;;;;;20.50;14.33;;;;;;;23.06;67.05;100379.53;4995615;28;20463;-47
2021/07/14 01:17:41;;;;;;;25.03;15.23;;;;;;;23.06;67.03;100387.41;4994190;28;20482;-50
2021/07/14 01:20:18;;;;;;;21.60;14.20;;;;;;;22.94;67.38;100384.97;4995634;28;20470;-49
2021/07/14 01:22:54;;;;;;;22.00;15.10;;;;;;;22.85;67.47;100380.72;4994674;28;20481;-48
2021/07/14 01:25:39;;;;;;;18.97;15.27;;;;;;;22.86;67.63;100379.81;4995269;28;20480;-49
2021/07/14 01:28:09;;;;;;;18.70;14.87;;;;;;;22.92;67.61;100378.88;4991555;28;20493;-50
2021/07/14 01:30:37;;;;;;;20.63;14.13;;;;;;;22.77;67.76;100380.84;4995498;28;20691;-49
2021/07/14 01:33:05;;;;;;;23.07;17.47;;;;;;;22.90;67.80;100383.28;4996496;28;20852;-47
2021/07/14 01:35:35;;;;;;;20.93;16.67;;;;;;;22.99;67.03;100382.25;4998814;28;20797;-51
2021/07/14 01:38:03;;;;;;;25.13;18.50;;;;;;;22.93;67.32;100381.47;4997629;28;20485;-47
2021/07/14 01:40:31;;;;;;;46.17;32.33;;;;;;;23.18;66.62;100378.44;4998875;28;20478;-51
2021/07/14 01:43:00;;;;;;;32.00;24.40;;;;;;;23.16;66.26;100376.72;4997433;28;20486;-49
2021/07/14 01:45:31;;;;;;;35.47;26.53;;;;;;;23.14;66.17;100371.50;4998628;28;20473;-50
2021/07/14 01:48:00;;;;;;;29.37;20.30;;;;;;;23.10;66.27;100366.31;4997414;28;20484;-53
2021/07/14 01:50:29;;;;;;;32.13;24.20;;;;;;;23.24;66.16;100363.44;4998803;28;20544;-51
2021/07/14 01:52:57;;;;;;;29.97;21.50;;;;;;;22.80;66.80;100356.25;4997450;28;20845;-49
2021/07/14 01:55:25;;;;;;;27.90;18.10;;;;;;;22.75;67.07;100351.06;4998609;28;20458;-48
2021/07/14 01:57:54;;;;;;;22.70;14.70;;;;;;;22.77;67.53;100351.91;4997214;28;20483;-51
2021/07/14 02:00:22;;;;;;;22.87;17.23;;;;;;;22.81;67.15;100354.50;4998408;28;20486;-50
2021/07/14 02:02:55;;;;;;;19.60;16.53;;;;;;;22.85;67.08;100356.19;4997783;28;20771;-50
2021/07/14 02:05:22;;;;;;;22.03;17.90;;;;;;;22.77;67.11;100349.28;4998559;28;20462;-49
2021/07/14 02:07:50;;;;;;;22.50;16.20;;;;;;;22.63;67.42;100349.50;4996943;28;20496;-53
2021/07/14 02:10:18;;;;;;;20.60;15.73;;;;;;;22.81;66.91;100352.72;4998556;28;20489;-53
2021/07/14 02:12:47;;;;;;;27.40;18.07;;;;;;;22.90;66.90;100346.47;4997151;28;20485;-47
2021/07/14 02:15:14;;;;;;;26.13;18.97;;;;;;;22.90;67.20;100341.19;4997916;28;20543;-49
2021/07/14 02:17:45;;;;;;;19.53;15.90;;;;;;;22.83;67.14;100342.19;4996562;28;20482;-51
2021/07/14 02:20:16;;;;;;;33.97;18.97;;;;;;;22.96;66.61;100346.34;4998425;28;20486;-52
2021/07/14 02:22:44;;;;;;;27.63;16.30;;;;;;;23.12;65.97;100346.13;4996934;28;20486;-49
2021/07/14 02:25:12;;;;;;;22.53;16.60;;;;;;;23.01;66.43;100355.06;4998265;28;20754;-49
2021/07/14 02:27:40;;;;;;;26.03;17.67;;;;;;;22.96;66.17;100359.50;4996355;28;20486;-52
2021/07/14 02:30:16;;;;;;;25.33;17.70;;;;;;;23.00;66.24;100358.56;4998180;28;20486;-49
2021/07/14 02:32:43;;;;;;;27.30;19.40;;;;;;;22.93;66.73;100357.78;4996818;28;20482;-53
2021/07/14 02:35:12;;;;;;;24.43;17.70;;;;;;;22.93;66.45;100354.31;4998188;28;20468;-49
2021/07/14 02:37:47;;;;;;;23.10;16.60;;;;;;;22.74;67.37;100358.97;4996115;28;20509;-49
2021/07/14 02:40:17;;;;;;;22.37;15.60;;;;;;;22.71;67.82;100356.41;4997973;28;20478;-50
2021/07/14 02:42:45;;;;;;;19.60;14.70;;;;;;;22.62;67.18;100354.78;5012070;28;20473;-50
2021/07/14 02:45:13;;;;;;;18.00;15.23;;;;;;;22.69;67.28;100356.44;5015555;28;20465;-47
2021/07/14 02:47:42;;;;;;;20.63;15.13;;;;;;;22.72;67.17;100350.25;5015607;28;20492;-50
2021/07/14 02:50:11;;;;;;;24.00;16.33;;;;;;;22.64;67.84;100353.00;5017262;28;20477;-50
2021/07/14 02:52:42;;;;;;;23.47;17.00;;;;;;;22.39;68.20;100361.19;5015871;28;20489;-51
2021/07/14 02:55:14;;;;;;;25.07;16.87;;;;;;;22.57;68.03;100360.13;5017479;28;20465;-48
2021/07/14 02:57:41;;;;;;;23.80;16.10;;;;;;;22.64;68.06;100353.00;5015283;28;20797;-52
2021/07/14 03:00:10;;;;;;;20.90;16.07;;;;;;;22.64;67.54;100347.72;5017142;28;20809;-50
2021/07/14 03:02:38;;;;;;;20.83;15.57;;;;;;;22.67;67.91;100350.34;5016197;28;20500;-50
2021/07/14 03:05:07;;;;;;;21.20;15.27;;;;;;;22.56;68.01;100344.38;5017171;28;20461;-51
2021/07/14 03:07:34;;;;;;;20.23;15.07;;;;;;;22.65;67.88;100349.47;5015844;28;20480;-49
2021/07/14 03:10:05;;;;;;;18.83;14.47;;;;;;;22.84;67.39;100350.06;5016831;28;20484;-52
2021/07/14 03:12:32;;;;;;;23.27;15.60;;;;;;;22.68;67.64;100343.28;5016008;28;20560;-51
2021/07/14 03:15:05;;;;;;;19.60;16.30;;;;;;;22.89;67.13;100342.09;4998648;28;20462;-47
2021/07/14 03:17:33;;;;;;;24.57;15.87;;;;;;;22.51;67.66;100337.41;4996003;28;20536;-49
2021/07/14 03:20:05;;;;;;;27.37;18.70;;;;;;;22.52;67.84;100343.53;4997321;28;20485;-50
2021/07/14 03:22:33;;;;;;;22.23;17.60;;;;;;;22.50;68.08;100340.00;5011971;28;20508;-48
2021/07/14 03:25:01;;;;;;;24.03;17.33;;;;;;;22.22;68.75;100330.78;5016837;28;20484;-52
2021/07/14 03:27:30;;;;;;;21.47;17.70;;;;;;;22.21;68.98;100329.03;5015472;28;20481;-50
2021/07/14 03:29:58;;;;;;;26.00;16.87;;;;;;;22.26;69.13;100328.97;5016357;28;20776;-52
2021/07/14 03:32:26;;;;;;;22.20;16.73;;;;;;;22.19;69.21;100325.56;5015684;28;20465;-49
2021/07/14 03:34:54;;;;;;;24.70;18.50;;;;;;;22.49;68.88;100336.53;5016740;28;20753;-49
2021/07/14 03:37:23;;;;;;;23.07;16.57;;;;;;;22.56;68.22;100344.38;5015112;28;20482;-51
2021/07/14 03:39:51;;;;;;;21.53;17.47;;;;;;;22.38;68.38;100346.31;5016323;28;20768;-51
2021/07/14 03:42:19;;;;;;;24.53;18.17;;;;;;;22.46;68.08;100349.69;5015392;28;20485;-50
2021/07/14 03:44:49;;;;;;;29.30;17.83;;;;;;;22.50;68.34;100361.91;5016242;28;20460;-52
2021/07/14 03:47:17;;;;;;;20.97;17.70;;;;;;;22.64;68.01;100363.50;5015013;28;20489;-49
2021/07/14 03:49:46;;;;;;;27.47;18.10;;;;;;;22.52;68.13;100364.56;5013089;28;20479;-47
2021/07/14 03:52:14;;;;;;;28.50;18.90;;;;;;;22.63;67.84;100372.28;5015262;28;20478;-49
2021/07/14 03:54:42;;;;;;;38.17;22.70;;;;;;;22.40;68.38;100370.81;5015684;28;20464;-52
2021/07/14 03:57:11;;;;;;;49.00;32.47;;;;;;;22.39;68.66;100364.69;5014617;28;20485;-50
2021/07/14 03:59:41;;;;;;;24.07;18.80;;;;;;;22.41;68.38;100362.06;5016073;28;20572;-50
2021/07/14 04:02:12;;;;;;;32.53;20.00;;;;;;;22.49;68.37;100361.94;5015221;28;20479;-49
2021/07/14 04:04:39;;;;;;;33.70;23.90;;;;;;;22.38;68.54;100362.97;5016207;28;20680;-46
2021/07/14 04:07:13;;;;;;;24.10;18.57;;;;;;;22.34;68.57;100357.75;5014351;28;20481;-49
2021/07/14 04:09:44;;;;;;;28.20;18.87;;;;;;;22.39;68.73;100363.81;5015794;28;20484;-54
2021/07/14 04:12:12;;;;;;;29.87;21.47;;;;;;;22.55;68.48;100374.16;5014426;28;20477;-48
2021/07/14 04:14:40;;;;;;;29.43;19.67;;;;;;;22.68;68.00;100407.28;5016026;28;20780;-48
2021/07/14 04:17:08;;;;;;;30.20;19.30;;;;;;;22.55;67.96;100390.78;5014191;28;20486;-48
2021/07/14 04:19:37;;;;;;;30.60;18.40;;;;;;;22.58;68.25;100396.03;5015724;28;20453;-49
2021/07/14 04:22:05;;;;;;;24.27;18.10;;;;;;;22.71;68.02;100401.97;5014161;28;20488;-50
2021/07/14 04:24:33;;;;;;;26.67;18.00;;;;;;;22.51;67.80;100407.47;5015641;28;20453;-47
2021/07/14 04:27:01;;;;;;;24.40;19.60;;;;;;;22.27;68.82;100401.66;5014033;28;20762;-48
2021/07/14 04:29:28;;;;;;;36.20;20.13;;;;;;;22.18;69.53;100392.13;5015554;28;20457;-47
2021/07/14 04:31:56;;;;;;;25.93;18.07;;;;;;;22.31;69.25;100399.84;5014129;28;20477;-49
2021/07/14 04:34:25;;;;;;;30.53;20.23;;;;;;;22.44;68.75;100393.53;5015606;28;20493;-51
2021/07/14 04:36:54;;;;;;;24.57;18.93;;;;;;;22.61;68.55;100388.06;5010491;28;20491;-50
2021/07/14 04:39:22;;;;;;;28.87;20.40;;;;;;;22.48;68.49;100400.50;5015636;28;20500;-50
2021/07/14 04:41:49;;;;;;;28.30;20.17;;;;;;;22.59;68.49;100410.00;5013902;28;20670;-48
2021/07/14 04:44:29;;;;;;;24.80;19.97;;;;;;;22.58;68.04;100403.91;5015468;28;20462;-48
2021/07/14 04:46:57;;;;;;;25.27;18.30;;;;;;;22.62;68.06;100407.34;5013805;28;20485;-48
2021/07/14 04:49:25;;;;;;;31.87;22.13;;;;;;;22.67;67.71;100400.28;5015293;28;20465;-48
2021/07/14 04:51:54;;;;;;;29.00;20.27;;;;;;;22.62;68.05;100405.59;5013985;28;20488;-48
2021/07/14 04:54:22;;;;;;;25.97;20.00;;;;;;;22.49;68.46;100411.88;5015527;28;20461;-47
2021/07/14 04:56:51;;;;;;;25.80;19.50;;;;;;;22.63;68.57;100407.34;5013675;28;20577;-50
2021/07/14 04:59:19;;;;;;;28.93;19.30;;;;;;;22.74;68.23;100412.44;5015187;28;20876;-51
2021/07/14 05:01:47;;;;;;;24.27;19.23;;;;;;;22.61;68.27;100410.88;5013898;28;20487;-48
2021/07/14 05:04:15;;;;;;;27.77;18.97;;;;;;;22.65;67.98;100409.94;5015460;28;20468;-51
2021/07/14 05:06:43;;;;;;;26.43;17.77;;;;;;;22.66;68.40;100409.91;5013935;28;20588;-50
2021/07/14 05:09:12;;;;;;;31.60;19.93;;;;;;;22.60;68.42;100409.16;5019380;28;20457;-53
2021/07/14 05:11:40;;;;;;;25.00;17.80;;;;;;;22.70;68.67;100405.47;5017721;28;20491;-50
2021/07/14 05:14:07;;;;;;;30.73;20.60;;;;;;;22.58;68.61;100396.03;5015867;28;20449;-52
2021/07/14 05:16:35;;;;;;;36.20;23.80;;;;;;;22.56;68.79;100396.94;5017483;28;20481;-52
2021/07/14 05:19:04;;;;;;;39.80;27.27;;;;;;;22.72;68.80;100398.44;5019220;28;20481;-51
2021/07/14 05:21:31;;;;;;;34.07;25.20;;;;;;;22.63;69.04;100394.19;5017769;28;20485;-51
2021/07/14 05:23:59;;;;;;;56.27;39.47;;;;;;;22.72;68.89;100394.94;5018947;28;20461;-48
2021/07/14 05:26:28;;;;;;;38.90;26.50;;;;;;;22.65;69.04;100394.16;5017298;28;20481;-48
2021/07/14 05:28:55;;;;;;;39.67;26.60;;;;;;;22.73;68.62;100405.44;5018890;28;20458;-47
2021/07/14 05:31:23;;;;;;;30.03;22.10;;;;;;;22.73;68.90;100397.56;5017434;28;20599;-47
2021/07/14 05:33:50;;;;;;;37.17;28.03;;;;;;;22.76;69.02;100399.28;5018998;28;20564;-53
2021/07/14 05:36:21;;;;;;;37.77;25.30;;;;;;;22.61;69.18;100401.22;5017158;28;20838;-51
2021/07/14 05:38:48;;;;;;;37.70;26.00;;;;;;;22.59;69.56;100407.38;5018814;28;20488;-47
2021/07/14 05:41:16;;;;;;;34.77;24.40;;;;;;;22.65;69.57;100404.66;5016919;28;20477;-53
2021/07/14 05:43:45;;;;;;;35.50;23.57;;;;;;;22.72;69.69;100398.44;5018779;28;20461;-49
2021/07/14 05:46:12;;;;;;;43.37;26.67;;;;;;;22.69;69.82;100392.34;5016715;28;20469;-52
2021/07/14 05:48:40;;;;;;;39.13;28.10;;;;;;;22.48;70.09;100397.00;5018823;28;20545;-50
2021/07/14 05:51:08;;;;;;;38.63;27.53;;;;;;;22.69;70.21;100401.13;5017116;28;20773;-48
2021/07/14 05:53:35;;;;;;;62.73;38.20;;;;;;;22.95;69.41;100415.63;5018434;28;20994;-51
2021/07/14 05:56:03;;;;;;;37.17;26.97;;;;;;;22.77;69.76;100422.06;5013193;28;21810;-50
2021/07/14 05:58:31;;;;;;;36.20;25.00;;;;;;;22.96;69.34;100421.78;5018253;28;20485;-51
2021/07/14 06:00:59;;;;;;;46.03;30.67;;;;;;;23.00;69.74;100415.56;5016056;28;20965;-50
2021/07/14 06:03:27;;;;;;;41.90;25.73;;;;;;;23.09;69.15;100412.81;5016890;28;20453;-52
2021/07/14 06:05:55;;;;;;;32.70;24.10;;;;;;;23.25;68.50;100412.53;5015495;28;20475;-49
2021/07/14 06:08:22;;;;;;;37.20;26.07;;;;;;;22.97;69.35;100407.72;5016634;28;20480;-49
2021/07/14 06:10:50;;;;;;;38.40;27.43;;;;;;;23.21;69.17;100406.47;5016027;28;20483;-54
2021/07/14 06:13:17;;;;;;;42.83;28.83;;;;;;;23.32;69.25;100401.94;5016940;28;20808;-51
2021/07/14 06:15:45;;;;;;;35.03;25.10;;;;;;;22.99;69.63;100405.94;5015672;28;20461;-50
2021/07/14 06:18:14;;;;;;;38.33;25.93;;;;;;;23.00;69.55;100403.28;5016028;28;20497;-47
2021/07/14 06:20:41;;;;;;;35.97;25.80;;;;;;;23.14;69.43;100404.84;5016734;28;20491;-51
2021/07/14 06:23:09;;;;;;;34.63;25.40;;;;;;;23.19;69.39;100400.38;5016031;28;20469;-48
2021/07/14 06:25:37;;;;;;;31.40;24.67;;;;;;;23.21;69.17;100395.94;5016616;28;20771;-49
2021/07/14 06:28:05;;;;;;;45.17;27.20;;;;;;;22.93;70.16;100401.66;5015096;28;20477;-50
2021/07/14 06:30:33;;;;;;;43.23;29.30;;;;;;;22.43;71.08;100396.19;5016583;28;20568;-50
2021/07/14 06:33:02;;;;;;;37.90;28.50;;;;;;;22.55;71.38;100411.81;5015084;28;20834;-47
2021/07/14 06:35:32;;;;;;;65.67;43.13;;;;;;;22.78;71.05;100408.84;5015708;28;20463;-48
2021/07/14 06:37:59;;;;;;;59.40;40.30;;;;;;;22.77;70.97;100411.53;4996436;28;20478;-54
2021/07/14 06:40:27;;;;;;;35.70;27.63;;;;;;;22.81;70.97;100407.09;4997029;28;20787;-52
2021/07/14 06:42:54;;;;;;;42.63;26.50;;;;;;;22.86;70.80;100402.66;4995405;28;20857;-52
2021/07/14 06:45:24;;;;;;;41.40;27.23;;;;;;;22.78;70.65;100387.81;4996654;28;20780;-50
2021/07/14 06:47:55;;;;;;;40.90;29.17;;;;;;;22.72;70.92;100393.16;4995255;28;20482;-47
2021/07/14 06:50:23;;;;;;;46.13;30.53;;;;;;;22.73;71.02;100394.06;4996763;28;20565;-51
2021/07/14 06:52:52;;;;;;;41.83;30.00;;;;;;;22.93;70.78;100406.91;4995448;28;20493;-50
2021/07/14 06:55:19;;;;;;;47.10;29.20;;;;;;;22.96;70.58;100396.31;4996749;28;20462;-53
2021/07/14 06:57:47;;;;;;;49.80;32.20;;;;;;;22.77;71.32;100375.56;4995135;28;20936;-52
2021/07/14 07:00:16;;;;;;;49.80;33.60;;;;;;;22.57;71.99;100356.59;4960368;28;1053300;-50
2021/07/14 07:02:44;;;;;;;59.17;35.83;;;;;;;22.43;73.27;100341.00;4996109;28;20242;-49
2021/07/14 07:05:11;;;;;;;53.73;36.27;;;;;;;22.42;73.61;100345.41;4998549;28;20787;-51
2021/07/14 07:07:39;;;;;;;53.17;35.40;;;;;;;22.41;73.54;100330.53;4996981;28;20943;-49
2021/07/14 07:10:10;;;;;;;49.80;35.27;;;;;;;22.18;74.29;100329.06;4997497;28;20481;-54
2021/07/14 07:12:37;;;;;;;54.23;36.67;;;;;;;22.32;74.66;100322.75;4996039;28;20478;-47
2021/07/14 07:15:10;;;;;;;51.97;35.23;;;;;;;22.34;74.58;100319.22;4997389;28;20760;-48
2021/07/14 07:17:38;;;;;;;53.77;35.47;;;;;;;22.30;74.69;100314.03;4995460;28;20573;-49
2021/07/14 07:20:06;;;;;;;55.43;36.07;;;;;;;22.51;74.17;100313.75;4997247;28;20493;-49
2021/07/14 07:22:34;;;;;;;52.57;35.67;;;;;;;22.49;74.32;100307.63;4995762;28;20566;-48
2021/07/14 07:25:02;;;;;;;54.77;37.87;;;;;;;22.65;74.22;100304.78;4997191;28;20912;-48
2021/07/14 07:27:35;;;;;;;61.07;35.97;;;;;;;22.43;74.52;100310.34;4995487;28;20474;-49
2021/07/14 07:30:03;;;;;;;51.53;35.07;;;;;;;22.69;74.27;100303.84;4996151;28;20474;-49
2021/07/14 07:32:31;;;;;;;48.00;35.20;;;;;;;22.77;74.11;100309.00;4995534;28;20478;-47
2021/07/14 07:34:58;;;;;;;53.97;35.87;;;;;;;22.54;74.67;100302.31;4997007;28;20919;-47
2021/07/14 07:37:26;;;;;;;44.70;33.57;;;;;;;22.66;74.60;100303.88;4995291;28;20489;-49
2021/07/14 07:39:53;;;;;;;49.83;34.10;;;;;;;22.82;74.49;100298.38;4996855;28;20498;-48
2021/07/14 07:42:21;;;;;;;47.00;33.40;;;;;;;22.78;74.72;100297.56;4995303;28;20478;-48
2021/07/14 07:44:50;;;;;;;42.03;30.67;;;;;;;22.97;74.04;100308.63;4996724;28;20469;-47
2021/07/14 07:47:18;;;;;;;49.57;33.47;;;;;;;23.03;74.04;100302.44;4995122;28;20478;-50
2021/07/14 07:49:46;;;;;;;43.30;32.70;;;;;;;23.10;74.36;100295.28;4996780;28;20478;-50
2021/07/14 07:52:25;;;;;;;46.97;32.57;;;;;;;23.15;73.66;100296.06;4995064;28;20478;-50
2021/07/14 07:54:55;;;;;;;54.27;38.33;;;;;;;23.15;73.80;100301.31;4996528;28;20558;-51
2021/07/14 07:57:23;;;;;;;44.93;31.23;;;;;;;23.40;73.28;100298.28;4996299;28;20966;-49
2021/07/14 07:59:53;;;;;;;39.67;29.30;;;;;;;23.33;72.75;100295.75;4996862;28;20490;-51
2021/07/14 08:02:20;;;;;;;42.20;30.00;;;;;;;23.20;73.19;100305.63;4995061;28;20485;-52
2021/07/14 08:04:48;;;;;;;43.50;30.40;;;;;;;23.26;73.69;100309.91;4996532;28;20450;-48
2021/07/14 08:07:16;;;;;;;38.40;28.67;;;;;;;23.18;73.75;100306.56;4994533;28;20489;-50
2021/07/14 08:09:44;;;;;;;39.47;28.40;;;;;;;23.27;74.17;100297.63;4996560;28;20474;-53
2021/07/14 08:12:11;;;;;;;42.33;27.30;;;;;;;23.31;73.58;100302.81;4995046;28;20771;-48
2021/07/14 08:14:39;;;;;;;34.47;27.30;;;;;;;23.42;73.17;100302.63;4996386;28;20493;-51
2021/07/14 08:17:08;;;;;;;31.87;25.87;;;;;;;23.19;73.44;100297.75;4994499;28;20970;-52
2021/07/14 08:19:35;;;;;;;33.93;26.60;;;;;;;23.39;73.57;100299.19;4996070;28;20514;-49
2021/07/14 08:22:03;;;;;;;33.03;25.90;;;;;;;23.66;72.32;100292.50;4994750;28;20482;-47
2021/07/14 08:24:30;;;;;;;38.63;25.93;;;;;;;23.74;72.03;100284.47;4996186;28;20458;-49
2021/07/14 08:26:58;;;;;;;34.33;26.90;;;;;;;23.69;72.63;100291.59;4994500;28;20484;-48
2021/07/14 08:29:36;;;;;;;32.30;26.00;;;;;;;23.70;72.48;100288.06;4995981;28;20541;-53
2021/07/14 08:32:04;;;;;;;35.30;24.60;;;;;;;23.94;72.31;100286.66;4994487;28;20487;-50
2021/07/14 08:34:33;;;;;;;37.53;28.07;;;;;;;24.04;72.15;100284.69;4996172;28;20809;-51
2021/07/14 08:37:01;;;;;;;34.80;24.73;;;;;;;23.99;72.00;100299.72;4996265;28;20501;-51
2021/07/14 08:39:29;;;;;;;28.60;21.90;;;;;;;24.38;71.69;100301.56;4995926;28;20489;-52
2021/07/14 08:41:57;;;;;;;29.10;23.23;;;;;;;23.89;72.08;100303.47;4994497;28;20482;-51
2021/07/14 08:44:25;;;;;;;32.90;23.83;;;;;;;24.27;71.88;100301.81;4995568;28;20520;-49
2021/07/14 08:46:52;;;;;;;26.97;21.77;;;;;;;24.18;71.21;100304.63;4994046;28;20783;-49
2021/07/14 08:49:21;;;;;;;30.57;23.57;;;;;;;24.43;70.64;100309.34;4995962;28;20454;-52
2021/07/14 08:51:52;;;;;;;44.83;35.43;;;;;;;24.82;69.51;100306.72;4994294;28;20905;-48
2021/07/14 08:54:20;;;;;;;50.40;38.73;;;;;;;25.20;68.90;100299.56;4995733;28;20470;-47
2021/07/14 08:56:49;;;;;;;35.30;27.40;;;;;;;25.42;68.47;100296.34;4994092;28;20481;-49
2021/07/14 08:59:18;;;;;;;50.77;38.17;;;;;;;25.51;67.53;100297.88;4998136;28;20458;-52
2021/07/14 09:01:45;;;;;;;28.70;22.00;;;;;;;25.67;67.30;100284.25;4994348;28;20486;-48
2021/07/14 09:04:13;;;;;;;26.80;20.13;;;;;;;25.92;67.44;100294.09;4995834;28;20521;-49
2021/07/14 09:06:41;;;;;;;26.97;18.97;;;;;;;25.72;66.61;100292.91;4993883;28;20569;-49
2021/07/14 09:09:10;;;;;;;23.73;19.03;;;;;;;25.77;66.09;100293.63;4995769;28;20489;-49
2021/07/14 09:11:51;;;;;;;21.63;18.03;;;;;;;26.01;66.15;100294.69;4994211;28;20544;-51
2021/07/14 09:14:28;;;;;;;20.80;17.00;;;;;;;25.80;66.33;100293.56;4995807;28;20544;-48
2021/07/14 09:16:56;;;;;;;21.33;16.97;;;;;;;25.85;66.05;100301.34;4993994;28;20481;-52
2021/07/14 09:19:26;;;;;;;21.47;15.97;;;;;;;26.12;66.71;100297.03;4995582;28;20470;-50
2021/07/14 09:21:55;;;;;;;20.40;17.30;;;;;;;25.77;66.10;100306.00;4994151;28;20496;-50
2021/07/14 09:24:32;;;;;;;19.87;16.53;;;;;;;25.73;65.61;100310.47;4995400;28;20807;-50
2021/07/14 09:27:01;;;;;;;20.30;16.43;;;;;;;25.70;65.85;100306.19;4993887;28;20769;-51
2021/07/14 09:29:29;;;;;;;21.87;16.17;;;;;;;26.11;65.51;100311.16;4995573;28;20466;-51
2021/07/14 09:31:57;;;;;;;24.43;16.97;;;;;;;25.95;65.71;100313.34;4993889;28;20927;-50
2021/07/14 09:34:26;;;;;;;22.07;17.97;;;;;;;25.91;64.71;100309.09;4995335;28;20959;-48
2021/07/14 09:36:59;;;;;;;17.93;16.03;;;;;;;25.86;64.63;100318.94;4993461;28;20896;-52
2021/07/14 09:39:35;;;;;;;21.50;15.63;;;;;;;25.81;64.58;100315.53;4995510;28;20455;-53
2021/07/14 09:42:06;;;;;;;19.20;15.73;;;;;;;25.94;64.28;100322.19;4994100;28;20544;-50
2021/07/14 09:44:34;;;;;;;19.60;16.00;;;;;;;26.24;63.79;100316.94;4995205;28;20466;-51
2021/07/14 09:47:08;;;;;;;19.30;15.80;;;;;;;26.55;63.49;100308.03;4993575;28;20990;-49
2021/07/14 09:49:36;;;;;;;24.50;18.40;;;;;;;26.68;63.04;100305.00;4995438;28;20461;-47
2021/07/14 09:52:09;;;;;;;42.53;33.27;;;;;;;26.96;62.75;100301.44;4993806;28;20496;-52
2021/07/14 09:54:39;;;;;;;84.17;59.57;;;;;;;27.37;61.35;100298.28;4998414;28;20469;-49
2021/07/14 09:57:14;;;;;;;16.60;14.20;;;;;;;27.19;60.52;100299.81;4997167;28;20480;-47
2021/07/14 09:59:45;;;;;;;16.20;14.30;;;;;;;27.17;60.47;100299.84;4998524;28;20489;-50
2021/07/14 10:02:15;;;;;;;16.03;14.27;;;;;;;27.15;59.88;100298.16;4997499;28;20474;-49
2021/07/14 10:04:44;;;;;;;21.50;15.23;;;;;;;27.15;60.05;100298.16;4998800;28;20490;-50
2021/07/14 10:07:14;;;;;;;28.80;15.63;;;;;;;27.26;60.51;100296.00;4997366;28;20482;-53
2021/07/14 10:09:45;;;;;;;15.50;13.50;;;;;;;27.53;60.63;100301.22;5015055;28;20480;-53
2021/07/14 10:12:30;;;;;;;16.63;14.10;;;;;;;27.53;61.22;100303.88;5016768;28;20536;-48
2021/07/14 10:14:59;;;;;;;20.77;14.97;;;;;;;27.60;61.25;100312.50;5018036;28;20464;-52
2021/07/14 10:17:37;;;;;;;15.77;13.70;;;;;;;27.82;59.00;100314.34;5016216;28;20481;-51
2021/07/14 10:20:29;;;;;;;16.73;13.40;;;;;;;27.92;58.49;100306.94;5017985;28;20477;-50
2021/07/14 10:22:58;;;;;;;15.20;13.40;;;;;;;27.92;58.46;100305.13;4996072;28;20478;-49
2021/07/14 10:25:28;;;;;;;16.03;14.10;;;;;;;27.90;59.00;100307.84;4998181;28;20464;-51
2021/07/14 10:27:57;;;;;;;20.50;13.63;;;;;;;27.62;59.64;100315.97;4999647;28;20482;-49
2021/07/14 10:30:26;;;;;;;19.73;14.90;;;;;;;27.90;58.02;100310.50;5013825;28;20479;-48
2021/07/14 10:32:55;;;;;;;19.23;13.83;;;;;;;28.04;58.19;100314.38;5016244;28;20486;-51
2021/07/14 10:35:24;;;;;;;15.43;12.87;;;;;;;28.07;57.50;100316.94;5017746;28;20471;-47
2021/07/14 10:38:15;;;;;;;16.03;13.10;;;;;;;28.30;57.19;100308.09;5017382;28;20813;-49
2021/07/14 10:40:46;;;;;;;18.03;15.10;;;;;;;27.80;56.08;100322.38;5016231;28;20488;-55
2021/07/14 10:43:15;;;;;;;18.03;15.53;;;;;;;27.85;55.45;100315.13;5017249;28;20496;-51
2021/07/14 10:45:45;;;;;;;21.20;14.70;;;;;;;27.95;56.52;100317.41;5016175;28;20544;-52
2021/07/14 10:48:15;;;;;;;16.97;14.70;;;;;;;28.26;56.21;100324.22;5017450;28;20489;-52
2021/07/14 10:50:43;;;;;;;16.77;14.03;;;;;;;28.25;54.90;100303.94;5017186;28;20473;-51
2021/07/14 10:53:12;;;;;;;16.00;13.47;;;;;;;28.50;54.26;100303.78;5016735;28;20489;-49
2021/07/14 10:55:41;;;;;;;19.63;13.70;;;;;;;28.95;53.27;100306.41;5017147;28;20763;-50
2021/07/14 10:58:11;;;;;;;19.53;14.93;;;;;;;28.59;53.91;100296.41;5016569;28;20472;-48
2021/07/14 11:00:39;;;;;;;17.93;14.80;;;;;;;28.81;53.92;100304.34;5016838;28;20490;-48
2021/07/14 11:03:08;;;;;;;16.93;14.87;;;;;;;28.78;53.90;100299.13;5015729;28;20507;-51
2021/07/14 11:05:44;;;;;;;16.80;14.40;;;;;;;28.20;53.83;100298.78;5012609;28;20466;-51
2021/07/14 11:08:12;;;;;;;16.23;14.27;;;;;;;28.04;54.48;100299.38;5016677;28;20465;-49
2021/07/14 11:10:40;;;;;;;18.63;14.17;;;;;;;28.35;54.18;100299.97;5016733;28;20491;-48
2021/07/14 11:13:29;;;;;;;16.60;14.77;;;;;;;28.41;53.67;100297.06;5015545;28;20481;-51
2021/07/14 11:15:57;;;;;;;20.70;14.37;;;;;;;28.74;53.66;100305.50;5015393;28;20923;-53
2021/07/14 11:18:40;;;;;;;18.87;15.00;;;;;;;29.00;53.25;100308.91;5016714;28;20556;-51
2021/07/14 11:21:08;;;;;;;19.50;15.30;;;;;;;29.00;55.07;100303.59;5015170;28;20477;-51
2021/07/14 11:23:36;;;;;;;19.70;15.33;;;;;;;28.64;54.33;100287.31;5017018;28;20464;-49
2021/07/14 11:26:04;;;;;;;20.20;14.07;;;;;;;28.86;55.26;100291.75;5015249;28;20470;-49